createdAt,value
2022-09-17T00:11:48.372Z,70.443
2022-09-17T00:26:50.740Z,67.187
2022-09-17T00:41:52.943Z,70.488
2022-09-17T00:56:55.199Z,70.766
2022-09-17T01:11:57.586Z,67.795
2022-09-17T01:26:59.823Z,70.852
2022-09-17T01:42:02.127Z,69.829
2022-09-17T01:57:04.380Z,71.358
2022-09-17T02:12:06.602Z,72.585
2022-09-17T02:27:08.887Z,77.551
2022-09-17T02:42:11.258Z,70.966
2022-09-17T02:57:13.728Z,68.778
2022-09-17T03:12:16.206Z,72.689
2022-09-17T03:27:18.478Z,68.945
2022-09-17T03:42:20.711Z,71.948
2022-09-17T03:57:22.950Z,73.281
2022-09-17T04:12:25.274Z,72.098
2022-09-17T04:27:27.490Z,71.61
2022-09-17T04:42:29.698Z,74.591
2022-09-17T04:57:31.944Z,72.678
2022-09-17T05:12:34.680Z,68.596
2022-09-17T05:27:37.157Z,70.665
2022-09-17T05:42:39.384Z,70.607
2022-09-17T05:57:41.617Z,70.872
2022-09-17T06:12:43.798Z,70.923
2022-09-17T06:27:46.100Z,69.591
2022-09-17T06:42:48.326Z,68.329
2022-09-17T06:57:50.597Z,70.98
2022-09-17T07:12:52.964Z,70.376
2022-09-17T07:27:55.202Z,72.29
2022-09-17T07:42:57.435Z,71.466
2022-09-17T07:57:59.957Z,70.682
2022-09-17T08:13:02.189Z,70.153
2022-09-17T08:28:04.402Z,70.004
2022-09-17T08:43:06.622Z,69.623
2022-09-17T08:58:09.072Z,70.527
2022-09-17T09:13:11.297Z,70.364
2022-09-17T09:28:13.486Z,71.322
2022-09-17T09:43:15.696Z,71.913
2022-09-17T09:58:17.890Z,72.077
2022-09-17T10:13:20.139Z,72.103
2022-09-17T10:28:22.420Z,69.397
2022-09-17T10:43:24.684Z,69.083
2022-09-17T10:58:26.903Z,69.77
2022-09-17T11:13:29.164Z,69.464
2022-09-17T11:28:31.435Z,66.612
2022-09-17T11:43:33.734Z,68.893
2022-09-17T11:58:35.952Z,68.728
2022-09-17T12:13:38.401Z,69.019
2022-09-17T12:28:40.740Z,68.14
2022-09-17T12:43:43.011Z,68.694
2022-09-17T12:58:45.327Z,70.378
2022-09-17T13:13:47.610Z,71.121
2022-09-17T13:28:49.801Z,69.994
2022-09-17T13:43:52.186Z,70.444
2022-09-17T13:58:54.475Z,69.667
2022-09-17T14:13:56.731Z,69.728
2022-09-17T14:28:58.939Z,71.577
2022-09-17T14:44:01.155Z,65.362
2022-09-17T14:59:03.379Z,66.364
2022-09-17T15:14:05.532Z,66.846
2022-09-17T15:29:07.789Z,68.698
2022-09-17T15:44:29.052Z,67.313
2022-09-17T15:59:33.010Z,66.234
2022-09-17T16:14:35.218Z,64.541
2022-09-17T16:29:37.500Z,63.453
2022-09-17T16:44:39.723Z,59.258
2022-09-17T16:59:42.005Z,61.55
2022-09-17T17:14:44.278Z,49.751
2022-09-17T17:29:46.498Z,52.625
2022-09-17T17:44:48.751Z,49.205
2022-09-17T17:59:51.218Z,48.903
2022-09-17T18:14:53.474Z,50.009
2022-09-17T18:29:55.882Z,50.932
2022-09-17T18:44:58.094Z,49.775
2022-09-17T19:00:00.524Z,49.401
2022-09-17T19:15:02.822Z,49.477
2022-09-17T19:30:05.052Z,49.013
2022-09-17T19:45:07.518Z,47.591
2022-09-17T20:00:09.725Z,46.887
2022-09-17T20:15:11.928Z,46.179
2022-09-17T20:30:14.169Z,44.184
2022-09-17T20:45:16.407Z,43.688
2022-09-17T21:00:18.580Z,44.63
2022-09-17T21:15:20.802Z,45.238
2022-09-17T21:30:23.075Z,45.639
2022-09-17T21:45:25.355Z,42.349
2022-09-17T22:00:27.698Z,41.391
2022-09-17T22:15:29.993Z,41.066
2022-09-17T22:30:32.358Z,41.524
2022-09-17T22:45:34.716Z,40.003
2022-09-17T23:00:36.952Z,41.502
2022-09-17T23:15:39.263Z,43.043
2022-09-17T23:30:41.579Z,42.666
2022-09-17T23:45:43.821Z,43.351
